»·PEaware :: N16RD KSNA-KAVX

N16RD :: KSNA-KAVX

FLIGHT INFORMATION

Flight Status: Arrived
Operator: Privately registered:
United States
More flights under this callsign
Pilot: Brett B. (12105)
Aircraft: CSA SportCruiser
(CRUZ)
More flights by this aircraft type
Origin: KSNA John Wayne-Orange Co
United States
Destination: KAVX Catalina
United States
More flights between these airports :: More routes between these airports
Route: SLI V21 SXC
File this flight plan on PilotEdge
Remarks: I-7 Test
Altitude:
(Current/Filed)
4,000ft
Speed:
(Current/Filed)
120kts
Departed: 24-Oct-17 04:29 PM
Arrived: 24-Oct-17 05:10 PM
Distance/Time
Traveled:
32nm/0:41
Distance/Time
To Go:
Arrived

Flight Plot

Page will automatically refresh every two minutes.


Map Options




Map Legend


Flown Route
Filed Route
Departure Airport
Arrival Airport
Navaid (VOR, NDB)
Fix

Horizontal Profiles

Position Reports

Time Latitude Longitude Heading Altitude Ground
Speed
24-Oct-17 16:15 33.667447 -117.870773 37 59ft 0kts
24-Oct-17 16:16 33.667447 -117.870773 37 59ft 0kts
24-Oct-17 16:17 33.667447 -117.870773 37 59ft 0kts
24-Oct-17 16:18 33.667447 -117.870773 37 59ft 0kts
24-Oct-17 16:19 33.667448 -117.870773 37 59ft 0kts
24-Oct-17 16:20 33.667448 -117.870772 37 59ft 0kts
24-Oct-17 16:21 33.667448 -117.870772 37 59ft 0kts
24-Oct-17 16:22 33.669088 -117.870900 40 59ft 12kts
24-Oct-17 16:23 33.671646 -117.868365 30 59ft 9kts
24-Oct-17 16:24 33.673662 -117.867136 309 59ft 9kts
24-Oct-17 16:25 33.678489 -117.864286 26 59ft 14kts
24-Oct-17 16:26 33.679727 -117.863865 294 59ft 0kts
24-Oct-17 16:27 33.679728 -117.863866 294 59ft 0kts
24-Oct-17 16:28 33.679728 -117.863867 294 59ft 0kts
24-Oct-17 16:29 33.679729 -117.863868 294 59ft 0kts
24-Oct-17 16:30 33.679917 -117.863523 166 59ft 6kts
24-Oct-17 16:31 33.676451 -117.865583 207 59ft 20kts
24-Oct-17 16:32 33.673764 -117.867462 294 59ft 2kts
24-Oct-17 16:33 33.673814 -117.867572 298 59ft 0kts
24-Oct-17 16:34 33.678955 -117.864786 24 306ft 70kts
24-Oct-17 16:35 33.699877 -117.850973 20 1496ft 103kts
24-Oct-17 16:36 33.717742 -117.868600 270 2037ft 105kts
24-Oct-17 16:37 33.708702 -117.905300 253 1998ft 116kts
24-Oct-17 16:38 33.698187 -117.941975 253 1999ft 116kts
24-Oct-17 16:39 33.687936 -117.977544 253 2351ft 107kts
24-Oct-17 16:40 33.678181 -118.011070 253 3045ft 105kts
24-Oct-17 16:41 33.668452 -118.044147 253 3742ft 104kts
24-Oct-17 16:42 33.657933 -118.078354 253 4003ft 114kts
24-Oct-17 16:43 33.646824 -118.114300 253 3997ft 114kts
24-Oct-17 16:44 33.636064 -118.149321 253 3991ft 110kts
24-Oct-17 16:45 33.625403 -118.183918 253 3991ft 110kts
24-Oct-17 16:46 33.601548 -118.208249 226 3997ft 115kts
24-Oct-17 16:52 33.476296 -118.327898 218 4000ft 121kts
24-Oct-17 16:53 33.448562 -118.350759 218 4000ft 121kts
24-Oct-17 16:54 33.420331 -118.374226 218 3856ft 121kts
24-Oct-17 16:55 33.392701 -118.397233 218 3859ft 121kts
24-Oct-17 16:56 33.365072 -118.420212 217 3857ft 121kts
24-Oct-17 16:57 33.334273 -118.413271 127 3850ft 126kts
24-Oct-17 16:58 33.338169 -118.382213 40 3859ft 119kts
24-Oct-17 16:59 33.369683 -118.372684 3 3859ft 119kts
24-Oct-17 17:00 33.402684 -118.367535 3 3858ft 119kts
24-Oct-17 17:01 33.441054 -118.361623 3 3859ft 119kts
24-Oct-17 17:02 33.468575 -118.357369 3 3858ft 119kts
24-Oct-17 17:03 33.491896 -118.374390 279 3859ft 110kts
24-Oct-17 17:04 33.469954 -118.396362 188 3888ft 122kts
24-Oct-17 17:05 33.436074 -118.402133 208 3873ft 120kts
24-Oct-17 17:06 33.416407 -118.429716 275 3675ft 114kts
24-Oct-17 17:07 33.441757 -118.449124 357 3117ft 123kts
24-Oct-17 17:08 33.474053 -118.451752 327 3089ft 111kts
24-Oct-17 17:09 33.501744 -118.468352 1 3067ft 115kts
24-Oct-17 17:10 33.516207 -118.436979 102 2996ft 121kts
24-Oct-17 17:11 33.493717 -118.408062 150 2367ft 120kts
24-Oct-17 17:12 33.462935 -118.404636 183 2154ft 107kts
24-Oct-17 17:13 33.434850 -118.404336 183 2152ft 76kts
24-Oct-17 17:14 33.415962 -118.403213 183 1972ft 65kts
24-Oct-17 17:15 33.405798 -118.414393 238 1605ft 31kts
24-Oct-17 17:16 33.403951 -118.417219 141 1605ft 0kts
24-Oct-17 17:17 33.403539 -118.416085 344 1605ft 9kts
24-Oct-17 17:18 33.403627 -118.415882 138 1605ft 0kts
24-Oct-17 17:19 33.403627 -118.415882 138 1605ft 0kts
24-Oct-17 17:20 33.403627 -118.415882 138 1605ft 0kts
24-Oct-17 17:21 33.403627 -118.415882 138 1605ft 0kts
24-Oct-17 17:22 33.403627 -118.415882 138 1605ft 0kts
24-Oct-17 17:23 33.403627 -118.415882 138 1605ft 0kts
24-Oct-17 17:24 33.403627 -118.415882 138 1605ft 0kts
24-Oct-17 17:25 33.403627 -118.415882 138 1605ft 0kts
24-Oct-17 17:26 33.403627 -118.415882 138 1605ft 0kts
24-Oct-17 17:27 33.403627 -118.415882 138 1605ft 0kts
24-Oct-17 17:28 33.403627 -118.415882 138 1605ft 0kts
24-Oct-17 17:29 33.403627 -118.415882 138 1605ft 0kts

Navigation Log

Ident Type
Flight plan parsing failed, navigation log unavailable